Felixlandia, Brazil
Current Conditions -  °F | °C
As of 10:00 PM on Tuesday 27 Jan 2015 (Local Time) from SBLS Reporting Station
Broken Clouds Broken Clouds  
Wind Chill: 66°   Ceiling: 3000
Heat Index: 66°   Visibility: 6mi
Dew Point: 63°   Wind: 3mph
Humidity: 88%   Direction: 70°ENE
Pressure: 30.12"   Gusts: NA
Location:  18.76°S, 44.9°W
Report Text: SBLS 280000Z 07003KT 9999 BKN030 BKN100 19/17 Q1020
Loading
Personal Weather Stations






























Interactive Weather Map New forecast layout! Learn more

10-Day Weather Forecast

Advertisements
Track Severe Weather on mobile